ESSB/BMA METAR and TAF weather

Enter ICAO airport designator
Station Type Date Time Source
ESSB METAR 2022/12/10 02:50 UTC NOAA

ESSB 100250Z AUTO 30004KT 9999 SCT005/// OVC009/// M04/M05 Q1009


Station Type Date Time Source
ESSB Decoded METAR 2022/12/10 02:50 UTC NOAA

Stockholm / Bromma, Sweden (ESSB) 59-21N 017-57E 14M
Dec 09, 2022 - 09:50 PM EST / 2022.12.10 0250 UTC
Wind: from the WNW (300 degrees) at 5 MPH (4 KT):0
Visibility: greater than 7 mile(s):0
Sky conditions: overcast
Temperature: 24 F (-4 C)
Windchill: 17 F (-8 C):1
Dew Point: 23 F (-5 C)
Relative Humidity: 92%
Pressure (altimeter): 29.80 in. Hg (1009 hPa)
ob: ESSB 100250Z AUTO 30004KT 9999 SCT005/// OVC009/// M04/M05 Q1009
cycle: 3

Station Type Date Time Source
ESSB TAF 2017/03/27 06:35 UTC NOAA

TAF ESSB 270530Z 2706/2724 27008KT CAVOK
BECMG 2710/2713 29015G25KT

Example: see airport list